Time;durP1;ratioP1;P1;durP2;ratioP2;P2;SDS_P1;SDS_P2;PMS_P1;PMS_P2;Temp;Humidity;BMP_temperature;BMP_pressure;BME280_temperature;BME280_humidity;BME280_pressure;Samples;Min_cycle;Max_cycle;Signal;HPM_P1;HPM_P2
2022/02/26 00:00:45;;;;;;;29.27;6.47;;;;;;;;;;2072476;28;20243;-65
2022/02/26 00:01:46;;;;;;;21.67;7.50;;;;;;;;;;2072779;28;20403;-59
2022/02/26 00:02:46;;;;;;;20.50;6.63;;;;;;;;;;2063999;28;20178;-58
2022/02/26 00:03:46;;;;;;;19.70;6.43;;;;;;;;;;2064490;28;20541;-59
2022/02/26 00:04:47;;;;;;;27.00;6.93;;;;;;;;;;2072511;28;20165;-60
2022/02/26 00:05:48;;;;;;;22.10;5.87;;;;;;;;;;2073064;28;20552;-59
2022/02/26 00:06:49;;;;;;;27.97;6.73;;;;;;;;;;2072428;28;20189;-57
2022/02/26 00:07:50;;;;;;;20.80;6.17;;;;;;;;;;2072070;28;20213;-58
2022/02/26 00:08:50;;;;;;;23.87;6.50;;;;;;;;;;2064109;28;20181;-60
2022/02/26 00:09:50;;;;;;;25.67;7.10;;;;;;;;;;2056168;28;20181;-60
2022/02/26 00:10:50;;;;;;;18.07;6.97;;;;;;;;;;2064092;28;20186;-56
2022/02/26 00:11:51;;;;;;;18.40;6.20;;;;;;;;;;2072890;28;20177;-57
2022/02/26 00:12:55;;;;;;;18.57;8.70;;;;;;;;;;2067377;28;20182;-58
2022/02/26 00:13:55;;;;;;;21.40;6.30;;;;;;;;;;2071990;28;20184;-57
2022/02/26 00:14:56;;;;;;;22.97;6.67;;;;;;;;;;2063426;28;20229;-60
2022/02/26 00:15:56;;;;;;;20.23;6.77;;;;;;;;;;2064271;28;20174;-55
2022/02/26 00:16:56;;;;;;;21.57;6.97;;;;;;;;;;2064377;28;20185;-56
2022/02/26 00:17:56;;;;;;;29.13;7.73;;;;;;;;;;2063733;28;20189;-58
2022/02/26 00:18:56;;;;;;;24.63;7.53;;;;;;;;;;2068097;28;20169;-59
2022/02/26 00:19:57;;;;;;;20.27;5.77;;;;;;;;;;2072681;28;20184;-57
2022/02/26 00:20:57;;;;;;;19.40;6.27;;;;;;;;;;2073077;28;20689;-61
2022/02/26 00:21:58;;;;;;;23.50;7.63;;;;;;;;;;2064526;28;20256;-60
2022/02/26 00:22:58;;;;;;;20.07;5.63;;;;;;;;;;2063792;28;20236;-60
2022/02/26 00:23:58;;;;;;;19.20;6.10;;;;;;;;;;2071983;28;20209;-57
2022/02/26 00:24:58;;;;;;;22.90;6.60;;;;;;;;;;2063336;28;20190;-60
2022/02/26 00:25:59;;;;;;;18.37;5.77;;;;;;;;;;2056058;28;20257;-59
2022/02/26 00:26:59;;;;;;;25.67;6.63;;;;;;;;;;2066134;28;20859;-57
2022/02/26 00:27:59;;;;;;;23.13;6.97;;;;;;;;;;2070777;28;20197;-58
2022/02/26 00:29:00;;;;;;;22.17;6.60;;;;;;;;;;2060912;28;20202;-57
2022/02/26 00:30:00;;;;;;;19.73;7.13;;;;;;;;;;2061888;28;20174;-58
2022/02/26 00:31:00;;;;;;;17.80;6.20;;;;;;;;;;2072535;28;20526;-57
2022/02/26 00:32:02;;;;;;;16.07;5.80;;;;;;;;;;2072927;28;20224;-59
2022/02/26 00:33:02;;;;;;;27.33;6.20;;;;;;;;;;2072125;28;20176;-55
2022/02/26 00:34:02;;;;;;;26.23;6.73;;;;;;;;;;2072659;28;20176;-62
2022/02/26 00:35:03;;;;;;;16.20;6.47;;;;;;;;;;2067798;28;20193;-58
2022/02/26 00:36:03;;;;;;;24.63;6.50;;;;;;;;;;2065865;28;20165;-58
2022/02/26 00:37:04;;;;;;;18.63;6.50;;;;;;;;;;2070452;28;20585;-59
2022/02/26 00:38:05;;;;;;;19.63;6.03;;;;;;;;;;2074256;28;20741;-59
2022/02/26 00:39:05;;;;;;;15.60;6.93;;;;;;;;;;2065097;28;20240;-59
2022/02/26 00:40:06;;;;;;;20.60;6.77;;;;;;;;;;2065070;28;20174;-58
2022/02/26 00:41:06;;;;;;;24.00;7.27;;;;;;;;;;2072966;28;20168;-57
2022/02/26 00:42:07;;;;;;;29.77;6.97;;;;;;;;;;2065007;28;20779;-59
2022/02/26 00:43:07;;;;;;;19.20;6.47;;;;;;;;;;2062879;28;20178;-60
2022/02/26 00:44:07;;;;;;;17.40;6.10;;;;;;;;;;2065277;28;20180;-56
2022/02/26 00:45:08;;;;;;;23.37;6.27;;;;;;;;;;2064612;28;20189;-57
2022/02/26 00:46:09;;;;;;;31.97;6.90;;;;;;;;;;2074444;28;20533;-58
2022/02/26 00:47:09;;;;;;;23.83;7.07;;;;;;;;;;2071252;28;20240;-58
2022/02/26 00:48:09;;;;;;;16.87;6.00;;;;;;;;;;2073894;28;20196;-59
2022/02/26 00:50:28;;;;;;;25.57;6.70;;;;;;;;;;2070298;28;20193;-59
2022/02/26 00:51:29;;;;;;;29.50;6.50;;;;;;;;;;2073467;28;20226;-58
2022/02/26 00:52:31;;;;;;;19.63;6.50;;;;;;;;;;2073523;28;20189;-58
2022/02/26 00:53:31;;;;;;;24.03;6.17;;;;;;;;;;2073926;28;20246;-61
2022/02/26 00:54:31;;;;;;;24.20;6.57;;;;;;;;;;2070787;28;20228;-59
2022/02/26 00:55:32;;;;;;;23.93;6.40;;;;;;;;;;2065292;28;20182;-59
2022/02/26 00:56:33;;;;;;;22.33;5.63;;;;;;;;;;2065197;28;20571;-57
2022/02/26 00:57:33;;;;;;;19.47;6.53;;;;;;;;;;2073695;28;20181;-56
2022/02/26 00:58:33;;;;;;;26.07;6.73;;;;;;;;;;2073486;28;20188;-60
2022/02/26 00:59:33;;;;;;;21.40;6.30;;;;;;;;;;2074178;28;20596;-60
2022/02/26 01:00:33;;;;;;;22.13;6.80;;;;;;;;;;2064994;28;20189;-59
2022/02/26 01:01:35;;;;;;;18.43;5.73;;;;;;;;;;2064435;28;20177;-59
2022/02/26 01:02:35;;;;;;;26.07;6.23;;;;;;;;;;2064841;28;20673;-59
2022/02/26 01:03:36;;;;;;;15.63;6.60;;;;;;;;;;2070313;28;20232;-58
2022/02/26 01:04:38;;;;;;;25.63;6.73;;;;;;;;;;2064501;28;20305;-56
2022/02/26 01:05:38;;;;;;;25.43;7.77;;;;;;;;;;2056588;28;20179;-59
2022/02/26 01:06:38;;;;;;;21.23;6.27;;;;;;;;;;2064249;28;20232;-59
2022/02/26 01:07:38;;;;;;;21.40;6.93;;;;;;;;;;2073638;28;20267;-58
2022/02/26 01:08:39;;;;;;;18.67;6.53;;;;;;;;;;2073926;28;20176;-59
2022/02/26 01:09:39;;;;;;;25.47;7.00;;;;;;;;;;2074364;28;20268;-59
2022/02/26 01:10:39;;;;;;;24.77;7.00;;;;;;;;;;2073114;28;20262;-58
2022/02/26 01:11:40;;;;;;;23.67;6.40;;;;;;;;;;2073764;28;20228;-57
2022/02/26 01:12:40;;;;;;;22.03;6.10;;;;;;;;;;2073706;28;20602;-58
2022/02/26 01:13:41;;;;;;;23.23;7.77;;;;;;;;;;2073670;28;20778;-58
2022/02/26 01:14:41;;;;;;;24.07;7.10;;;;;;;;;;2063887;28;20177;-57
2022/02/26 01:15:42;;;;;;;23.77;6.30;;;;;;;;;;2058118;28;20217;-59
2022/02/26 01:16:43;;;;;;;16.47;5.97;;;;;;;;;;2072749;28;20192;-57
2022/02/26 01:17:43;;;;;;;19.73;6.97;;;;;;;;;;2068725;28;20282;-60
2022/02/26 01:18:43;;;;;;;16.77;5.80;;;;;;;;;;2065007;28;20189;-58
2022/02/26 01:19:44;;;;;;;22.30;6.80;;;;;;;;;;2065532;28;20264;-57
2022/02/26 01:20:44;;;;;;;19.40;6.40;;;;;;;;;;2064140;28;20185;-59
2022/02/26 01:21:45;;;;;;;19.03;6.57;;;;;;;;;;2057507;28;20445;-59
2022/02/26 01:22:45;;;;;;;20.83;6.47;;;;;;;;;;2059772;28;20177;-60
2022/02/26 01:23:45;;;;;;;18.80;6.63;;;;;;;;;;2065685;28;20217;-57
2022/02/26 01:24:46;;;;;;;16.30;6.00;;;;;;;;;;2055060;28;20179;-58
2022/02/26 01:25:46;;;;;;;23.17;7.10;;;;;;;;;;2064645;28;20184;-59
2022/02/26 01:26:46;;;;;;;18.50;6.70;;;;;;;;;;2071558;28;20204;-60
2022/02/26 01:27:46;;;;;;;22.10;6.37;;;;;;;;;;2065048;28;20580;-58
2022/02/26 01:28:47;;;;;;;20.50;6.80;;;;;;;;;;2065189;28;20178;-59
2022/02/26 01:29:47;;;;;;;19.97;6.93;;;;;;;;;;2073172;28;20184;-58
2022/02/26 01:30:47;;;;;;;16.47;6.43;;;;;;;;;;2073934;28;20193;-58
2022/02/26 01:31:49;;;;;;;19.70;7.63;;;;;;;;;;2064990;28;20174;-58
2022/02/26 01:32:49;;;;;;;20.87;6.13;;;;;;;;;;2064600;28;20186;-59
2022/02/26 01:33:49;;;;;;;19.43;6.63;;;;;;;;;;2072218;28;20559;-54
2022/02/26 01:34:49;;;;;;;19.17;6.37;;;;;;;;;;2069511;28;20170;-55
2022/02/26 01:35:50;;;;;;;21.30;7.33;;;;;;;;;;2067533;28;20189;-61
2022/02/26 01:36:50;;;;;;;17.90;6.03;;;;;;;;;;2072665;28;20323;-60
2022/02/26 01:37:50;;;;;;;26.73;6.23;;;;;;;;;;2073384;28;20242;-56
2022/02/26 01:38:50;;;;;;;24.73;6.67;;;;;;;;;;2074072;28;20664;-60
2022/02/26 01:39:51;;;;;;;22.37;6.40;;;;;;;;;;2070939;28;20191;-58
2022/02/26 01:40:52;;;;;;;17.97;5.70;;;;;;;;;;2073406;28;20180;-56
2022/02/26 01:41:52;;;;;;;23.70;6.57;;;;;;;;;;2073110;28;20619;-59
2022/02/26 01:42:53;;;;;;;21.00;6.53;;;;;;;;;;2073501;28;20177;-58
2022/02/26 01:43:53;;;;;;;24.77;6.97;;;;;;;;;;2069059;28;20654;-56
2022/02/26 01:44:54;;;;;;;20.87;6.03;;;;;;;;;;2073535;28;20226;-59
2022/02/26 01:45:54;;;;;;;17.23;6.43;;;;;;;;;;2064999;28;20213;-56
2022/02/26 01:46:54;;;;;;;22.80;7.10;;;;;;;;;;2064893;28;20204;-56
2022/02/26 01:47:55;;;;;;;22.83;6.43;;;;;;;;;;2072590;28;20220;-59
2022/02/26 01:48:55;;;;;;;22.00;6.67;;;;;;;;;;2073220;28;20173;-59
2022/02/26 01:49:55;;;;;;;19.83;6.57;;;;;;;;;;2064035;28;20662;-55
2022/02/26 01:50:56;;;;;;;23.90;7.10;;;;;;;;;;2064071;28;20181;-59
2022/02/26 01:51:56;;;;;;;23.00;7.50;;;;;;;;;;2067904;28;20204;-59
2022/02/26 01:52:57;;;;;;;24.13;6.63;;;;;;;;;;2068290;28;20227;-56
2022/02/26 01:53:58;;;;;;;21.53;6.60;;;;;;;;;;2064601;28;20689;-59
2022/02/26 01:54:59;;;;;;;24.07;7.37;;;;;;;;;;2064874;28;20165;-58
2022/02/26 01:56:00;;;;;;;16.20;6.43;;;;;;;;;;2073493;28;20247;-57
2022/02/26 01:57:01;;;;;;;23.37;6.33;;;;;;;;;;2072587;28;20278;-60
2022/02/26 01:58:02;;;;;;;17.27;6.27;;;;;;;;;;2064443;28;20268;-58
2022/02/26 01:59:03;;;;;;;22.73;7.00;;;;;;;;;;2065180;28;20176;-59
2022/02/26 02:00:04;;;;;;;21.60;6.77;;;;;;;;;;2064911;28;20678;-60
2022/02/26 02:01:05;;;;;;;22.27;7.13;;;;;;;;;;2065301;28;20177;-59
2022/02/26 02:02:06;;;;;;;19.40;7.00;;;;;;;;;;2072766;28;20208;-55
2022/02/26 02:03:06;;;;;;;20.40;7.30;;;;;;;;;;2073586;28;20228;-59
2022/02/26 02:04:06;;;;;;;18.70;7.93;;;;;;;;;;2072402;28;20188;-55
2022/02/26 02:05:07;;;;;;;19.17;7.40;;;;;;;;;;2074348;28;20578;-58
2022/02/26 02:06:07;;;;;;;23.37;7.33;;;;;;;;;;2073883;28;20177;-59
2022/02/26 02:07:08;;;;;;;26.30;6.67;;;;;;;;;;2065169;28;20182;-58
2022/02/26 02:08:08;;;;;;;21.50;6.63;;;;;;;;;;2064266;28;20201;-61
2022/02/26 02:09:08;;;;;;;23.70;7.80;;;;;;;;;;2068753;28;20614;-59
2022/02/26 02:10:09;;;;;;;21.33;7.13;;;;;;;;;;2072097;28;20298;-57
2022/02/26 02:11:09;;;;;;;25.63;7.13;;;;;;;;;;2073779;28;20664;-59
2022/02/26 02:12:10;;;;;;;25.00;6.80;;;;;;;;;;2073494;28;20304;-59
2022/02/26 02:13:10;;;;;;;17.77;7.60;;;;;;;;;;2073154;28;20169;-59
2022/02/26 02:14:11;;;;;;;21.27;7.03;;;;;;;;;;2072526;28;20251;-59
2022/02/26 02:15:11;;;;;;;21.10;6.53;;;;;;;;;;2064725;28;20181;-59
2022/02/26 02:16:15;;;;;;;25.73;6.47;;;;;;;;;;2064415;28;20268;-59
2022/02/26 02:17:15;;;;;;;22.20;7.07;;;;;;;;;;2073327;28;20594;-58
2022/02/26 02:18:16;;;;;;;21.33;6.20;;;;;;;;;;2073735;28;20204;-60
2022/02/26 02:19:16;;;;;;;21.27;7.47;;;;;;;;;;2072461;28;20322;-58
2022/02/26 02:20:16;;;;;;;21.07;6.97;;;;;;;;;;2068233;28;20265;-58
2022/02/26 02:21:16;;;;;;;20.63;7.17;;;;;;;;;;2061895;28;20263;-59
2022/02/26 02:22:18;;;;;;;26.50;6.93;;;;;;;;;;2064059;28;20213;-60
2022/02/26 02:23:18;;;;;;;24.63;7.63;;;;;;;;;;2064607;28;20193;-59
2022/02/26 02:24:18;;;;;;;23.53;6.87;;;;;;;;;;2063881;28;20805;-59
2022/02/26 02:25:22;;;;;;;36.13;7.80;;;;;;;;;;2064739;28;20228;-59
2022/02/26 02:26:22;;;;;;;25.73;8.03;;;;;;;;;;2057250;28;20208;-60
2022/02/26 02:27:22;;;;;;;23.50;7.90;;;;;;;;;;2064064;28;20272;-60
2022/02/26 02:28:23;;;;;;;28.47;7.37;;;;;;;;;;2073314;28;20232;-58
2022/02/26 02:29:23;;;;;;;18.63;6.87;;;;;;;;;;2073533;28;20183;-58
2022/02/26 02:30:25;;;;;;;26.43;8.00;;;;;;;;;;2073280;28;20181;-58
2022/02/26 02:31:25;;;;;;;19.87;7.80;;;;;;;;;;2073808;28;20496;-58
2022/02/26 02:32:25;;;;;;;24.27;6.93;;;;;;;;;;2073705;28;20879;-58
2022/02/26 02:33:26;;;;;;;27.43;8.23;;;;;;;;;;2073204;28;20264;-60
2022/02/26 02:34:26;;;;;;;31.07;7.23;;;;;;;;;;2072581;28;20255;-58
2022/02/26 02:35:31;;;;;;;23.03;7.80;;;;;;;;;;2073151;28;20180;-58
2022/02/26 02:36:40;;;;;;;24.20;7.43;;;;;;;;;;2064384;28;20650;-57
2022/02/26 02:37:40;;;;;;;21.77;7.20;;;;;;;;;;2057047;28;20408;-60
2022/02/26 02:38:41;;;;;;;24.20;7.63;;;;;;;;;;2061337;28;20178;-56
2022/02/26 02:39:41;;;;;;;24.50;7.27;;;;;;;;;;2065023;28;20293;-60
2022/02/26 02:40:42;;;;;;;20.00;6.47;;;;;;;;;;2064915;28;20209;-59
2022/02/26 02:41:43;;;;;;;25.77;7.30;;;;;;;;;;2073820;28;20181;-59
2022/02/26 02:42:44;;;;;;;18.13;6.90;;;;;;;;;;2073745;28;20809;-59
2022/02/26 02:43:44;;;;;;;27.70;6.73;;;;;;;;;;2073819;28;20522;-54
2022/02/26 02:44:44;;;;;;;21.90;7.63;;;;;;;;;;2073422;28;20169;-59
2022/02/26 02:45:45;;;;;;;24.40;6.40;;;;;;;;;;2073468;28;20248;-60
2022/02/26 02:46:45;;;;;;;16.57;6.40;;;;;;;;;;2074110;28;20524;-62
2022/02/26 02:47:46;;;;;;;24.73;8.27;;;;;;;;;;2074088;28;20192;-59
2022/02/26 02:48:47;;;;;;;20.73;7.00;;;;;;;;;;2073652;28;20169;-61
2022/02/26 02:49:47;;;;;;;22.00;7.37;;;;;;;;;;2070172;28;20411;-58
2022/02/26 02:50:48;;;;;;;20.37;7.03;;;;;;;;;;2069920;28;20647;-59
2022/02/26 02:51:48;;;;;;;22.40;6.67;;;;;;;;;;2073696;28;20248;-57
2022/02/26 02:52:49;;;;;;;20.50;6.33;;;;;;;;;;2069087;28;20631;-55
2022/02/26 02:53:49;;;;;;;24.33;6.93;;;;;;;;;;2064658;28;20201;-60
2022/02/26 02:54:50;;;;;;;18.93;6.70;;;;;;;;;;2056742;28;20205;-60
2022/02/26 02:55:50;;;;;;;24.23;7.83;;;;;;;;;;2062948;28;20197;-58
2022/02/26 02:56:51;;;;;;;28.53;7.20;;;;;;;;;;2073071;28;20204;-60
2022/02/26 02:57:51;;;;;;;20.67;7.00;;;;;;;;;;2073123;28;20165;-60
2022/02/26 02:58:52;;;;;;;29.23;7.23;;;;;;;;;;2073320;28;20181;-60
2022/02/26 02:59:53;;;;;;;26.77;7.20;;;;;;;;;;2073604;28;20180;-60
2022/02/26 03:00:53;;;;;;;19.17;7.17;;;;;;;;;;2073014;28;20260;-58
2022/02/26 03:01:54;;;;;;;30.77;6.70;;;;;;;;;;2072718;28;20839;-58
2022/02/26 03:02:54;;;;;;;15.83;6.47;;;;;;;;;;2073313;28;20676;-58
2022/02/26 03:03:54;;;;;;;25.13;7.03;;;;;;;;;;2072685;28;20176;-59
2022/02/26 03:04:54;;;;;;;21.53;6.93;;;;;;;;;;2063650;28;20209;-61
2022/02/26 03:05:55;;;;;;;19.97;7.17;;;;;;;;;;2064819;28;20636;-58
2022/02/26 03:06:55;;;;;;;25.47;7.77;;;;;;;;;;2072054;28;20259;-57
2022/02/26 03:07:55;;;;;;;18.53;7.97;;;;;;;;;;2073548;28;20291;-58
2022/02/26 03:08:55;;;;;;;24.47;7.33;;;;;;;;;;2073257;28;20319;-58
2022/02/26 03:09:56;;;;;;;23.70;7.00;;;;;;;;;;2070892;28;20177;-60
2022/02/26 03:10:56;;;;;;;22.03;7.23;;;;;;;;;;2067387;28;20172;-60
2022/02/26 03:11:56;;;;;;;18.27;6.77;;;;;;;;;;2072274;28;20187;-58
2022/02/26 03:12:57;;;;;;;23.17;6.90;;;;;;;;;;2073884;28;20543;-59
2022/02/26 03:13:57;;;;;;;24.57;6.93;;;;;;;;;;2074077;28;20199;-59
2022/02/26 03:14:57;;;;;;;28.80;7.60;;;;;;;;;;2075319;28;20204;-60
2022/02/26 03:15:57;;;;;;;29.57;7.10;;;;;;;;;;2075095;28;20571;-60
2022/02/26 03:16:58;;;;;;;23.87;7.37;;;;;;;;;;2074125;28;20621;-60
2022/02/26 03:17:58;;;;;;;22.57;8.27;;;;;;;;;;2065232;28;20600;-57
2022/02/26 03:18:58;;;;;;;22.70;8.27;;;;;;;;;;2064789;28;20216;-54
2022/02/26 03:19:59;;;;;;;26.53;8.67;;;;;;;;;;2073184;28;20192;-57
2022/02/26 03:20:59;;;;;;;24.23;7.20;;;;;;;;;;2071558;28;20173;-58
2022/02/26 03:21:59;;;;;;;17.50;6.83;;;;;;;;;;2073545;28;20638;-58
2022/02/26 03:22:59;;;;;;;24.27;7.63;;;;;;;;;;2072834;28;20547;-54
2022/02/26 03:24:00;;;;;;;24.83;7.20;;;;;;;;;;2074314;28;20197;-59
2022/02/26 03:25:01;;;;;;;30.73;7.50;;;;;;;;;;2065783;28;20177;-59
2022/02/26 03:26:02;;;;;;;28.07;7.60;;;;;;;;;;2063911;28;20186;-57
2022/02/26 03:27:02;;;;;;;21.47;6.70;;;;;;;;;;2065575;28;20732;-60
2022/02/26 03:28:03;;;;;;;19.83;6.73;;;;;;;;;;2066020;28;20190;-59
2022/02/26 03:29:03;;;;;;;29.60;7.70;;;;;;;;;;2074824;28;20188;-60
2022/02/26 03:30:05;;;;;;;26.80;7.90;;;;;;;;;;2078254;28;20192;-60
2022/02/26 03:31:05;;;;;;;28.83;7.67;;;;;;;;;;2078662;28;20183;-57
2022/02/26 03:32:06;;;;;;;22.90;7.23;;;;;;;;;;2072983;28;20410;-58
2022/02/26 03:33:07;;;;;;;28.97;8.60;;;;;;;;;;2073115;28;20183;-58
2022/02/26 03:34:07;;;;;;;28.80;7.70;;;;;;;;;;2071172;28;20398;-58
2022/02/26 03:35:08;;;;;;;27.57;7.60;;;;;;;;;;2071501;28;20476;-59
2022/02/26 03:36:08;;;;;;;20.00;6.57;;;;;;;;;;2072364;28;20179;-59
2022/02/26 03:37:10;;;;;;;22.00;8.03;;;;;;;;;;2072918;28;20684;-60
2022/02/26 03:38:10;;;;;;;20.20;7.30;;;;;;;;;;2063595;28;20658;-61
2022/02/26 03:39:10;;;;;;;26.53;8.17;;;;;;;;;;2063665;28;20414;-58
2022/02/26 03:40:11;;;;;;;16.37;6.87;;;;;;;;;;2072108;28;20188;-59
2022/02/26 03:41:13;;;;;;;24.73;7.47;;;;;;;;;;2056093;28;20182;-57
2022/02/26 03:42:14;;;;;;;24.83;7.57;;;;;;;;;;2056597;28;20185;-61
2022/02/26 03:43:14;;;;;;;23.97;6.73;;;;;;;;;;2073274;28;20457;-57
2022/02/26 03:44:14;;;;;;;18.77;6.13;;;;;;;;;;2063816;28;20689;-59
2022/02/26 03:45:15;;;;;;;20.57;7.07;;;;;;;;;;2064162;28;20188;-59
2022/02/26 03:46:15;;;;;;;25.97;7.83;;;;;;;;;;2073152;28;20181;-57
2022/02/26 03:47:16;;;;;;;33.37;8.33;;;;;;;;;;2073264;28;20531;-56
2022/02/26 03:48:17;;;;;;;18.00;7.07;;;;;;;;;;2072935;28;20203;-61
2022/02/26 03:49:17;;;;;;;24.17;7.40;;;;;;;;;;2073183;28;20553;-60
2022/02/26 03:50:17;;;;;;;23.17;7.67;;;;;;;;;;2073229;28;20176;-57
2022/02/26 03:51:17;;;;;;;34.53;8.43;;;;;;;;;;2073203;28;20176;-59
2022/02/26 03:52:18;;;;;;;26.40;7.90;;;;;;;;;;2073264;28;20377;-59
2022/02/26 03:53:19;;;;;;;38.27;7.83;;;;;;;;;;2072935;28;20177;-58
2022/02/26 03:54:20;;;;;;;23.00;7.50;;;;;;;;;;2073080;28;20446;-58
2022/02/26 03:55:20;;;;;;;24.13;7.90;;;;;;;;;;2073081;28;20177;-59
2022/02/26 03:56:21;;;;;;;25.33;6.93;;;;;;;;;;2073266;28;20638;-60
2022/02/26 03:57:21;;;;;;;20.17;7.03;;;;;;;;;;2073069;28;20648;-57
2022/02/26 03:58:22;;;;;;;33.10;8.30;;;;;;;;;;2073289;28;20196;-58
2022/02/26 03:59:22;;;;;;;16.43;6.73;;;;;;;;;;2073080;28;20176;-54
2022/02/26 04:00:22;;;;;;;24.70;7.90;;;;;;;;;;2075845;28;20181;-56
2022/02/26 04:01:23;;;;;;;19.80;7.23;;;;;;;;;;2074325;28;20193;-56
2022/02/26 04:02:23;;;;;;;24.40;6.53;;;;;;;;;;2074325;28;20434;-60
2022/02/26 04:03:23;;;;;;;22.70;6.93;;;;;;;;;;2074085;28;20204;-58
2022/02/26 04:04:24;;;;;;;22.80;8.40;;;;;;;;;;2073637;28;20181;-61
2022/02/26 04:05:24;;;;;;;28.67;7.60;;;;;;;;;;2075290;28;20732;-58
2022/02/26 04:06:24;;;;;;;21.93;6.73;;;;;;;;;;2074826;28;20224;-59
2022/02/26 04:07:25;;;;;;;28.47;7.97;;;;;;;;;;2075819;28;20243;-59
2022/02/26 04:08:26;;;;;;;31.33;7.03;;;;;;;;;;2077703;28;20259;-60
2022/02/26 04:09:26;;;;;;;23.13;6.83;;;;;;;;;;2077541;28;20173;-58
2022/02/26 04:10:26;;;;;;;29.13;7.30;;;;;;;;;;2079215;28;20284;-59
2022/02/26 04:11:26;;;;;;;20.73;7.20;;;;;;;;;;2081721;28;20193;-58
2022/02/26 04:12:27;;;;;;;27.20;6.93;;;;;;;;;;2080722;28;20165;-54
2022/02/26 04:13:27;;;;;;;24.40;7.10;;;;;;;;;;2080067;28;20203;-58
2022/02/26 04:14:27;;;;;;;21.40;6.60;;;;;;;;;;2070298;28;20177;-55
2022/02/26 04:15:27;;;;;;;21.53;7.80;;;;;;;;;;2072346;28;20245;-59
2022/02/26 04:16:28;;;;;;;21.90;6.60;;;;;;;;;;2072087;28;20203;-58
2022/02/26 04:17:28;;;;;;;22.90;7.57;;;;;;;;;;2063476;28;20170;-60
2022/02/26 04:18:28;;;;;;;24.80;7.37;;;;;;;;;;2071251;28;20193;-60
2022/02/26 04:19:28;;;;;;;26.07;7.93;;;;;;;;;;2077884;28;20245;-58
2022/02/26 04:20:29;;;;;;;21.57;7.23;;;;;;;;;;2075150;28;20316;-58
2022/02/26 04:21:30;;;;;;;24.17;6.40;;;;;;;;;;2074751;28;20169;-58
2022/02/26 04:22:30;;;;;;;25.33;8.03;;;;;;;;;;2075294;28;20199;-59
2022/02/26 04:23:30;;;;;;;21.43;6.67;;;;;;;;;;2074504;28;20591;-60
2022/02/26 04:24:30;;;;;;;23.07;7.37;;;;;;;;;;2065403;28;20209;-58
2022/02/26 04:25:30;;;;;;;20.63;7.17;;;;;;;;;;2065892;28;20190;-59
2022/02/26 04:26:31;;;;;;;24.03;6.53;;;;;;;;;;2074713;28;20553;-59
2022/02/26 04:27:31;;;;;;;31.10;7.00;;;;;;;;;;2075106;28;20657;-55
2022/02/26 04:28:31;;;;;;;21.43;7.87;;;;;;;;;;2074775;28;20609;-58
2022/02/26 04:29:31;;;;;;;24.03;6.73;;;;;;;;;;2074516;28;20200;-58
2022/02/26 04:30:33;;;;;;;25.83;7.07;;;;;;;;;;2074966;28;20173;-59
2022/02/26 04:31:33;;;;;;;19.63;6.80;;;;;;;;;;2075029;28;20662;-57
2022/02/26 04:32:34;;;;;;;18.63;6.87;;;;;;;;;;2075091;28;20201;-58
2022/02/26 04:33:34;;;;;;;26.07;7.93;;;;;;;;;;2065159;28;20201;-58
2022/02/26 04:34:34;;;;;;;20.57;7.53;;;;;;;;;;2065230;28;20174;-57
2022/02/26 04:35:35;;;;;;;17.87;7.67;;;;;;;;;;2074707;28;20272;-57
2022/02/26 04:36:36;;;;;;;24.67;7.97;;;;;;;;;;2066527;28;20205;-58
2022/02/26 04:37:36;;;;;;;21.93;7.27;;;;;;;;;;2066359;28;20161;-59
2022/02/26 04:38:37;;;;;;;25.40;6.60;;;;;;;;;;2057356;28;20189;-58
2022/02/26 04:39:37;;;;;;;22.80;7.73;;;;;;;;;;2064921;28;20573;-57
2022/02/26 04:40:38;;;;;;;16.30;7.00;;;;;;;;;;2074463;28;20645;-56
2022/02/26 04:41:38;;;;;;;23.07;7.23;;;;;;;;;;2065627;28;20615;-58
2022/02/26 04:42:39;;;;;;;21.57;7.10;;;;;;;;;;2057630;28;20186;-57
2022/02/26 04:43:40;;;;;;;19.07;7.47;;;;;;;;;;2065719;28;20690;-55
2022/02/26 04:44:40;;;;;;;24.47;7.33;;;;;;;;;;2073956;28;20184;-57
2022/02/26 04:45:40;;;;;;;24.27;8.77;;;;;;;;;;2065570;28;20414;-54
2022/02/26 04:46:41;;;;;;;20.50;7.40;;;;;;;;;;2065459;28;20206;-59
2022/02/26 04:47:42;;;;;;;27.67;8.03;;;;;;;;;;2074428;28;20168;-57
2022/02/26 04:48:42;;;;;;;29.67;7.37;;;;;;;;;;2074160;28;20603;-55
2022/02/26 04:49:42;;;;;;;34.50;9.73;;;;;;;;;;2074110;28;20271;-61
2022/02/26 04:50:43;;;;;;;21.13;8.30;;;;;;;;;;2074339;28;20171;-58
2022/02/26 04:51:43;;;;;;;29.57;8.37;;;;;;;;;;2074437;28;20555;-58
2022/02/26 04:52:44;;;;;;;28.40;8.47;;;;;;;;;;2074153;28;20651;-58
2022/02/26 04:53:44;;;;;;;24.20;8.00;;;;;;;;;;2072702;28;20177;-58
2022/02/26 04:54:44;;;;;;;22.83;7.60;;;;;;;;;;2074055;28;20177;-58
2022/02/26 04:55:45;;;;;;;22.83;8.67;;;;;;;;;;2074283;28;20176;-57
2022/02/26 04:56:45;;;;;;;28.60;8.27;;;;;;;;;;2068794;28;20693;-55
2022/02/26 04:57:47;;;;;;;25.20;7.57;;;;;;;;;;2057555;28;20166;-54
2022/02/26 04:58:47;;;;;;;32.07;8.63;;;;;;;;;;2057925;28;20170;-59
2022/02/26 04:59:47;;;;;;;25.73;8.23;;;;;;;;;;2057222;28;20467;-56
2022/02/26 05:00:48;;;;;;;27.80;7.90;;;;;;;;;;2065262;28;20205;-55
2022/02/26 05:01:48;;;;;;;27.33;8.67;;;;;;;;;;2074317;28;20246;-57
2022/02/26 05:02:48;;;;;;;25.10;7.73;;;;;;;;;;2065790;28;20178;-58
2022/02/26 05:03:49;;;;;;;22.40;8.33;;;;;;;;;;2056464;28;20646;-59
2022/02/26 05:04:49;;;;;;;26.00;8.60;;;;;;;;;;2059454;28;20170;-55
2022/02/26 05:05:49;;;;;;;22.73;8.73;;;;;;;;;;2074564;28;20169;-60
2022/02/26 05:06:49;;;;;;;26.17;8.67;;;;;;;;;;2074727;28;20199;-55
2022/02/26 05:07:50;;;;;;;26.50;9.00;;;;;;;;;;2073110;28;20177;-57
2022/02/26 05:08:50;;;;;;;35.23;9.80;;;;;;;;;;2068089;28;20173;-59
2022/02/26 05:09:51;;;;;;;28.23;9.13;;;;;;;;;;2073863;28;20681;-57
2022/02/26 05:10:52;;;;;;;29.37;9.47;;;;;;;;;;2074237;28;20199;-58
2022/02/26 05:11:53;;;;;;;31.60;9.07;;;;;;;;;;2074298;28;20234;-58
2022/02/26 05:12:53;;;;;;;22.73;8.77;;;;;;;;;;2073212;28;20414;-59
2022/02/26 05:13:53;;;;;;;36.17;8.93;;;;;;;;;;2071602;28;20200;-61
2022/02/26 05:14:55;;;;;;;30.53;9.80;;;;;;;;;;2070974;28;20169;-57
2022/02/26 05:15:56;;;;;;;30.37;9.53;;;;;;;;;;2068656;28;20220;-57
2022/02/26 05:16:56;;;;;;;30.57;8.90;;;;;;;;;;2073668;28;20434;-59
2022/02/26 05:17:56;;;;;;;33.67;8.20;;;;;;;;;;2071714;28;20181;-55
2022/02/26 05:18:56;;;;;;;34.67;9.50;;;;;;;;;;2060436;28;20174;-58
2022/02/26 05:19:57;;;;;;;27.80;8.73;;;;;;;;;;2065046;28;20184;-59
2022/02/26 05:20:57;;;;;;;23.27;8.70;;;;;;;;;;2073640;28;20183;-57
2022/02/26 05:21:57;;;;;;;29.83;10.60;;;;;;;;;;2064659;28;20228;-59
2022/02/26 05:22:58;;;;;;;34.50;10.53;;;;;;;;;;2064555;28;20197;-56
2022/02/26 05:23:58;;;;;;;35.17;9.13;;;;;;;;;;2074251;28;20241;-60
2022/02/26 05:24:58;;;;;;;34.17;9.40;;;;;;;;;;2074329;28;20189;-58
2022/02/26 05:25:58;;;;;;;29.10;9.57;;;;;;;;;;2074420;28;20164;-58
2022/02/26 05:26:59;;;;;;;24.93;8.53;;;;;;;;;;2074330;28;20197;-58
2022/02/26 05:27:59;;;;;;;33.13;9.43;;;;;;;;;;2074348;28;20213;-56
2022/02/26 05:28:59;;;;;;;25.63;9.97;;;;;;;;;;2065294;28;20169;-58
2022/02/26 05:30:00;;;;;;;23.90;8.73;;;;;;;;;;2065717;28;20166;-60
2022/02/26 05:31:00;;;;;;;20.27;8.43;;;;;;;;;;2073045;28;20215;-62
2022/02/26 05:32:00;;;;;;;28.33;9.20;;;;;;;;;;2065638;28;20173;-57
2022/02/26 05:33:00;;;;;;;25.33;10.33;;;;;;;;;;2063822;28;20630;-59
2022/02/26 05:34:01;;;;;;;27.37;8.33;;;;;;;;;;2067079;28;20625;-59
2022/02/26 05:35:01;;;;;;;39.17;13.93;;;;;;;;;;2065806;28;20782;-59
2022/02/26 05:36:03;;;;;;;28.30;12.17;;;;;;;;;;2066058;28;20292;-59
2022/02/26 05:37:03;;;;;;;30.70;10.27;;;;;;;;;;2086289;23;20247;-53
2022/02/26 05:38:03;;;;;;;28.73;9.77;;;;;;;;;;2080738;28;21039;-53
2022/02/26 05:39:04;;;;;;;25.73;8.60;;;;;;;;;;2079350;28;20176;-57
2022/02/26 05:40:04;;;;;;;25.77;8.90;;;;;;;;;;2080800;28;20607;-55
2022/02/26 05:41:07;;;;;;;26.73;8.63;;;;;;;;;;2080166;28;20246;-56
2022/02/26 05:42:07;;;;;;;38.10;10.53;;;;;;;;;;2077425;28;20181;-59
2022/02/26 05:43:07;;;;;;;27.23;9.07;;;;;;;;;;2077536;28;20481;-54
2022/02/26 05:44:08;;;;;;;24.17;8.53;;;;;;;;;;2080535;28;20180;-56
2022/02/26 05:45:08;;;;;;;26.63;9.30;;;;;;;;;;2073203;28;20259;-60
2022/02/26 05:46:08;;;;;;;31.77;10.37;;;;;;;;;;2069023;28;20231;-58
2022/02/26 05:47:08;;;;;;;29.40;9.83;;;;;;;;;;2075975;28;20195;-59
2022/02/26 05:48:09;;;;;;;24.47;8.77;;;;;;;;;;2071908;28;20208;-59
2022/02/26 05:49:09;;;;;;;25.13;9.37;;;;;;;;;;2072218;28;20600;-59
2022/02/26 05:50:09;;;;;;;25.50;8.73;;;;;;;;;;2081810;28;20161;-59
2022/02/26 05:51:10;;;;;;;29.77;8.93;;;;;;;;;;2078656;28;20291;-60
2022/02/26 05:52:10;;;;;;;33.70;9.83;;;;;;;;;;2081111;28;20840;-58
2022/02/26 05:53:10;;;;;;;25.80;8.47;;;;;;;;;;2081538;28;20172;-59
2022/02/26 05:54:10;;;;;;;25.67;8.70;;;;;;;;;;2081378;28;20258;-59
2022/02/26 05:55:10;;;;;;;37.13;9.40;;;;;;;;;;2081632;28;20176;-59
2022/02/26 05:56:11;;;;;;;24.43;7.97;;;;;;;;;;2081750;28;20625;-59
2022/02/26 05:57:12;;;;;;;29.70;8.83;;;;;;;;;;2081648;28;20194;-60
2022/02/26 05:58:12;;;;;;;21.47;8.57;;;;;;;;;;2081958;28;20323;-59